sensor_id;sensor_type;location;lat;lon;timestamp;pressure;altitude;pressure_sealevel;temperature;humidity
10958;BME280;5531;42.570;23.676;2023-02-17T00:01:45;92827.09;;;4.30;63.86
10958;BME280;5531;42.570;23.676;2023-02-17T00:04:14;92826.41;;;4.18;63.50
10958;BME280;5531;42.570;23.676;2023-02-17T00:06:43;92818.75;;;4.17;64.54
10958;BME280;5531;42.570;23.676;2023-02-17T00:09:12;92823.13;;;4.26;64.52
10958;BME280;5531;42.570;23.676;2023-02-17T00:11:41;92811.81;;;4.27;64.11
10958;BME280;5531;42.570;23.676;2023-02-17T00:14:11;92815.75;;;4.31;66.19
10958;BME280;5531;42.570;23.676;2023-02-17T00:16:43;92810.97;;;4.27;64.54
10958;BME280;5531;42.570;23.676;2023-02-17T00:19:12;92810.16;;;4.16;64.38
10958;BME280;5531;42.570;23.676;2023-02-17T00:21:55;92811.69;;;4.09;64.85
10958;BME280;5531;42.570;23.676;2023-02-17T00:24:26;92821.22;;;4.18;65.32
10958;BME280;5531;42.570;23.676;2023-02-17T00:26:55;92806.75;;;4.26;64.69
10958;BME280;5531;42.570;23.676;2023-02-17T00:29:24;92808.78;;;4.32;64.85
10958;BME280;5531;42.570;23.676;2023-02-17T00:31:56;92804.97;;;4.36;64.16
10958;BME280;5531;42.570;23.676;2023-02-17T00:34:25;92814.25;;;4.38;63.96
10958;BME280;5531;42.570;23.676;2023-02-17T00:36:55;92805.50;;;4.39;64.16
10958;BME280;5531;42.570;23.676;2023-02-17T00:39:24;92810.69;;;4.39;63.64
10958;BME280;5531;42.570;23.676;2023-02-17T00:41:53;92807.69;;;4.34;64.18
10958;BME280;5531;42.570;23.676;2023-02-17T00:44:23;92806.19;;;4.32;64.29
10958;BME280;5531;42.570;23.676;2023-02-17T00:46:55;92801.97;;;4.31;64.33
10958;BME280;5531;42.570;23.676;2023-02-17T00:49:25;92796.91;;;4.29;64.42
10958;BME280;5531;42.570;23.676;2023-02-17T00:51:57;92795.25;;;4.28;64.97
10958;BME280;5531;42.570;23.676;2023-02-17T00:54:26;92789.41;;;4.26;64.42
10958;BME280;5531;42.570;23.676;2023-02-17T00:56:55;92784.63;;;4.21;64.33
10958;BME280;5531;42.570;23.676;2023-02-17T00:59:24;92794.47;;;4.18;64.63
10958;BME280;5531;42.570;23.676;2023-02-17T01:01:56;92788.06;;;4.12;65.43
10958;BME280;5531;42.570;23.676;2023-02-17T01:04:25;92798.03;;;4.07;65.35
10958;BME280;5531;42.570;23.676;2023-02-17T01:06:54;92798.44;;;4.02;66.50
10958;BME280;5531;42.570;23.676;2023-02-17T01:09:23;92785.22;;;3.96;66.06
10958;BME280;5531;42.570;23.676;2023-02-17T01:11:52;92787.13;;;3.84;68.97
10958;BME280;5531;42.570;23.676;2023-02-17T01:14:21;92784.00;;;3.80;68.86
10958;BME280;5531;42.570;23.676;2023-02-17T01:16:50;92781.69;;;3.77;69.53
10958;BME280;5531;42.570;23.676;2023-02-17T01:19:22;92781.28;;;3.72;69.68
10958;BME280;5531;42.570;23.676;2023-02-17T01:21:51;92774.03;;;3.66;70.40
10958;BME280;5531;42.570;23.676;2023-02-17T01:24:20;92774.03;;;3.56;72.27
10958;BME280;5531;42.570;23.676;2023-02-17T01:26:48;92769.13;;;3.53;71.29
10958;BME280;5531;42.570;23.676;2023-02-17T01:29:17;92765.31;;;3.47;70.84
10958;BME280;5531;42.570;23.676;2023-02-17T01:31:47;92766.94;;;3.48;70.22
10958;BME280;5531;42.570;23.676;2023-02-17T01:34:15;92762.44;;;3.41;70.00
10958;BME280;5531;42.570;23.676;2023-02-17T01:36:47;92766.38;;;3.45;69.96
10958;BME280;5531;42.570;23.676;2023-02-17T01:39:17;92766.13;;;3.48;69.58
10958;BME280;5531;42.570;23.676;2023-02-17T01:41:46;92766.53;;;3.53;69.24
10958;BME280;5531;42.570;23.676;2023-02-17T01:44:18;92763.81;;;3.55;69.47
10958;BME280;5531;42.570;23.676;2023-02-17T01:46:49;92764.78;;;3.54;69.22
10958;BME280;5531;42.570;23.676;2023-02-17T01:49:29;92761.88;;;3.57;68.80
10958;BME280;5531;42.570;23.676;2023-02-17T01:52:07;92762.59;;;3.59;68.81
10958;BME280;5531;42.570;23.676;2023-02-17T01:54:41;92760.13;;;3.57;69.27
10958;BME280;5531;42.570;23.676;2023-02-17T01:57:12;92755.78;;;3.58;69.48
10958;BME280;5531;42.570;23.676;2023-02-17T01:59:43;92764.63;;;3.55;69.27
10958;BME280;5531;42.570;23.676;2023-02-17T02:02:13;92759.44;;;3.55;69.61
10958;BME280;5531;42.570;23.676;2023-02-17T02:04:45;92766.41;;;3.55;69.17
10958;BME280;5531;42.570;23.676;2023-02-17T02:07:20;92763.25;;;3.51;69.26
10958;BME280;5531;42.570;23.676;2023-02-17T02:09:52;92763.38;;;3.40;69.67
10958;BME280;5531;42.570;23.676;2023-02-17T02:12:24;92767.34;;;3.34;70.38
10958;BME280;5531;42.570;23.676;2023-02-17T02:14:56;92761.88;;;3.27;70.21
10958;BME280;5531;42.570;23.676;2023-02-17T02:17:32;92757.13;;;3.23;71.07
10958;BME280;5531;42.570;23.676;2023-02-17T02:23:30;92763.59;;;3.07;72.24
10958;BME280;5531;42.570;23.676;2023-02-17T02:26:41;92767.44;;;3.03;72.66
10958;BME280;5531;42.570;23.676;2023-02-17T02:32:35;92763.16;;;2.92;73.19
10958;BME280;5531;42.570;23.676;2023-02-17T02:35:10;92757.34;;;3.00;72.82
10958;BME280;5531;42.570;23.676;2023-02-17T02:37:46;92757.06;;;3.03;72.69
10958;BME280;5531;42.570;23.676;2023-02-17T02:40:22;92752.56;;;3.05;72.57
10958;BME280;5531;42.570;23.676;2023-02-17T02:42:52;92758.56;;;3.06;72.47
10958;BME280;5531;42.570;23.676;2023-02-17T02:45:22;92763.84;;;2.94;74.49
10958;BME280;5531;42.570;23.676;2023-02-17T02:47:54;92765.25;;;2.99;73.64
10958;BME280;5531;42.570;23.676;2023-02-17T02:50:29;92760.88;;;2.99;72.96
10958;BME280;5531;42.570;23.676;2023-02-17T02:53:31;92762.91;;;2.96;73.12
10958;BME280;5531;42.570;23.676;2023-02-17T02:56:11;92772.91;;;2.69;74.82
10958;BME280;5531;42.570;23.676;2023-02-17T02:58:47;92770.31;;;2.69;74.20
10958;BME280;5531;42.570;23.676;2023-02-17T03:01:22;92764.31;;;2.69;75.84
10958;BME280;5531;42.570;23.676;2023-02-17T03:04:00;92769.81;;;2.75;76.46
10958;BME280;5531;42.570;23.676;2023-02-17T03:06:36;92772.09;;;2.79;76.82
10958;BME280;5531;42.570;23.676;2023-02-17T03:09:10;92769.50;;;2.79;75.94
10958;BME280;5531;42.570;23.676;2023-02-17T03:11:41;92775.53;;;2.79;75.35
10958;BME280;5531;42.570;23.676;2023-02-17T03:14:13;92780.97;;;2.76;74.85
10958;BME280;5531;42.570;23.676;2023-02-17T03:16:43;92772.38;;;2.75;75.54
10958;BME280;5531;42.570;23.676;2023-02-17T03:19:17;92770.63;;;2.76;75.72
10958;BME280;5531;42.570;23.676;2023-02-17T03:21:50;92771.97;;;2.80;74.93
10958;BME280;5531;42.570;23.676;2023-02-17T03:24:20;92775.28;;;2.82;74.82
10958;BME280;5531;42.570;23.676;2023-02-17T03:26:49;92771.41;;;2.77;75.63
10958;BME280;5531;42.570;23.676;2023-02-17T03:29:18;92775.09;;;2.74;74.94
10958;BME280;5531;42.570;23.676;2023-02-17T03:31:47;92775.53;;;2.79;75.69
10958;BME280;5531;42.570;23.676;2023-02-17T03:34:19;92778.78;;;2.81;74.87
10958;BME280;5531;42.570;23.676;2023-02-17T03:36:48;92774.69;;;2.79;76.26
10958;BME280;5531;42.570;23.676;2023-02-17T03:39:17;92775.53;;;2.79;76.03
10958;BME280;5531;42.570;23.676;2023-02-17T03:41:46;92773.75;;;2.80;75.96
10958;BME280;5531;42.570;23.676;2023-02-17T03:44:16;92778.94;;;2.80;75.81
10958;BME280;5531;42.570;23.676;2023-02-17T03:46:46;92765.09;;;2.60;76.13
10958;BME280;5531;42.570;23.676;2023-02-17T03:49:15;92762.66;;;2.58;77.85
10958;BME280;5531;42.570;23.676;2023-02-17T03:51:46;92769.44;;;2.59;76.88
10958;BME280;5531;42.570;23.676;2023-02-17T03:54:15;92763.97;;;2.52;76.62
10958;BME280;5531;42.570;23.676;2023-02-17T03:56:44;92764.78;;;2.43;77.45
10958;BME280;5531;42.570;23.676;2023-02-17T03:59:13;92759.84;;;2.40;77.83
10958;BME280;5531;42.570;23.676;2023-02-17T04:01:42;92753.84;;;2.39;77.43
10958;BME280;5531;42.570;23.676;2023-02-17T04:04:11;92756.84;;;2.35;77.89
10958;BME280;5531;42.570;23.676;2023-02-17T04:06:41;92754.44;;;2.43;77.47
10958;BME280;5531;42.570;23.676;2023-02-17T04:09:12;92762.47;;;2.50;77.10
10958;BME280;5531;42.570;23.676;2023-02-17T04:11:41;92754.34;;;2.54;77.33
10958;BME280;5531;42.570;23.676;2023-02-17T04:14:11;92749.72;;;2.58;77.38
10958;BME280;5531;42.570;23.676;2023-02-17T04:16:40;92758.03;;;2.62;77.51
10958;BME280;5531;42.570;23.676;2023-02-17T04:19:09;92761.69;;;2.59;78.47
10958;BME280;5531;42.570;23.676;2023-02-17T04:21:38;92763.84;;;2.54;77.59
10958;BME280;5531;42.570;23.676;2023-02-17T04:24:07;92762.66;;;2.58;77.10
10958;BME280;5531;42.570;23.676;2023-02-17T04:26:38;92757.47;;;2.58;77.30
10958;BME280;5531;42.570;23.676;2023-02-17T04:29:07;92760.19;;;2.56;77.64
10958;BME280;5531;42.570;23.676;2023-02-17T04:31:36;92749.94;;;2.45;78.60
10958;BME280;5531;42.570;23.676;2023-02-17T04:34:05;92749.94;;;2.45;78.13
10958;BME280;5531;42.570;23.676;2023-02-17T04:36:34;92756.75;;;2.46;78.22
10958;BME280;5531;42.570;23.676;2023-02-17T04:39:03;92755.50;;;2.41;78.11
10958;BME280;5531;42.570;23.676;2023-02-17T04:41:32;92759.31;;;2.36;78.39
10958;BME280;5531;42.570;23.676;2023-02-17T04:44:04;92759.16;;;2.38;78.64
10958;BME280;5531;42.570;23.676;2023-02-17T04:46:33;92756.00;;;2.34;78.34
10958;BME280;5531;42.570;23.676;2023-02-17T04:49:02;92763.63;;;2.36;79.32
10958;BME280;5531;42.570;23.676;2023-02-17T04:51:31;92764.47;;;2.36;80.18
10958;BME280;5531;42.570;23.676;2023-02-17T04:54:00;92758.22;;;2.39;79.89
10958;BME280;5531;42.570;23.676;2023-02-17T04:56:29;92763.25;;;2.41;79.45
10958;BME280;5531;42.570;23.676;2023-02-17T04:58:58;92752.22;;;2.38;79.02
10958;BME280;5531;42.570;23.676;2023-02-17T05:01:30;92758.22;;;2.39;78.90
10958;BME280;5531;42.570;23.676;2023-02-17T05:03:59;92763.94;;;2.43;78.03
10958;BME280;5531;42.570;23.676;2023-02-17T05:06:28;92771.31;;;2.47;78.48
10958;BME280;5531;42.570;23.676;2023-02-17T05:08:57;92769.50;;;2.38;77.35
10958;BME280;5531;42.570;23.676;2023-02-17T05:11:26;92768.00;;;2.35;77.41
10958;BME280;5531;42.570;23.676;2023-02-17T05:13:56;92765.16;;;2.38;77.56
10958;BME280;5531;42.570;23.676;2023-02-17T05:16:25;92780.16;;;2.45;77.45
10958;BME280;5531;42.570;23.676;2023-02-17T05:18:56;92765.63;;;2.53;77.26
10958;BME280;5531;42.570;23.676;2023-02-17T05:21:25;92771.56;;;2.44;77.13
10958;BME280;5531;42.570;23.676;2023-02-17T05:23:54;92769.41;;;2.49;77.02
10958;BME280;5531;42.570;23.676;2023-02-17T05:26:23;92767.06;;;2.36;77.94
10958;BME280;5531;42.570;23.676;2023-02-17T05:28:53;92773.34;;;2.44;78.89
10958;BME280;5531;42.570;23.676;2023-02-17T05:31:22;92782.19;;;2.51;77.43
10958;BME280;5531;42.570;23.676;2023-02-17T05:33:52;92783.81;;;2.42;77.67
10958;BME280;5531;42.570;23.676;2023-02-17T05:36:24;92774.78;;;2.06;78.34
10958;BME280;5531;42.570;23.676;2023-02-17T05:38:53;92786.28;;;2.01;79.55
10958;BME280;5531;42.570;23.676;2023-02-17T05:41:22;92788.75;;;2.03;79.15
10958;BME280;5531;42.570;23.676;2023-02-17T05:43:51;92793.00;;;2.04;78.87
10958;BME280;5531;42.570;23.676;2023-02-17T05:46:21;92785.47;;;2.01;78.96
10958;BME280;5531;42.570;23.676;2023-02-17T05:48:50;92796.56;;;2.13;78.81
10958;BME280;5531;42.570;23.676;2023-02-17T05:51:19;92795.31;;;2.28;78.46
10958;BME280;5531;42.570;23.676;2023-02-17T05:53:51;92795.94;;;2.42;77.17
10958;BME280;5531;42.570;23.676;2023-02-17T05:56:20;92816.16;;;2.58;76.23
10958;BME280;5531;42.570;23.676;2023-02-17T05:58:49;92823.63;;;2.61;75.60
10958;BME280;5531;42.570;23.676;2023-02-17T06:01:18;92820.28;;;2.70;75.56
10958;BME280;5531;42.570;23.676;2023-02-17T06:03:47;92821.41;;;2.77;74.53
10958;BME280;5531;42.570;23.676;2023-02-17T06:06:16;92822.41;;;2.86;74.01
10958;BME280;5531;42.570;23.676;2023-02-17T06:08:45;92826.09;;;2.93;74.09
10958;BME280;5531;42.570;23.676;2023-02-17T06:11:17;92825.44;;;3.01;73.90
10958;BME280;5531;42.570;23.676;2023-02-17T06:13:46;92834.44;;;3.06;74.23
10958;BME280;5531;42.570;23.676;2023-02-17T06:16:15;92833.41;;;3.19;73.27
10958;BME280;5531;42.570;23.676;2023-02-17T06:18:44;92828.78;;;3.22;72.50
10958;BME280;5531;42.570;23.676;2023-02-17T06:21:14;92827.19;;;3.31;72.20
10958;BME280;5531;42.570;23.676;2023-02-17T06:23:43;92836.84;;;3.39;71.77
10958;BME280;5531;42.570;23.676;2023-02-17T06:26:12;92827.91;;;3.53;71.32
10958;BME280;5531;42.570;23.676;2023-02-17T06:28:46;92827.38;;;3.59;71.35
10958;BME280;5531;42.570;23.676;2023-02-17T06:31:15;92831.72;;;3.68;71.01
10958;BME280;5531;42.570;23.676;2023-02-17T06:33:44;92834.75;;;3.73;70.51
10958;BME280;5531;42.570;23.676;2023-02-17T06:36:13;92835.44;;;3.75;69.77
10958;BME280;5531;42.570;23.676;2023-02-17T06:38:42;92840.19;;;3.70;70.16
10958;BME280;5531;42.570;23.676;2023-02-17T06:41:11;92834.44;;;3.76;70.21
10958;BME280;5531;42.570;23.676;2023-02-17T06:43:40;92839.09;;;3.92;70.14
10958;BME280;5531;42.570;23.676;2023-02-17T06:46:12;92844.56;;;3.89;69.20
10958;BME280;5531;42.570;23.676;2023-02-17T06:48:41;92836.50;;;3.92;69.40
10958;BME280;5531;42.570;23.676;2023-02-17T06:51:10;92836.78;;;3.89;69.32
10958;BME280;5531;42.570;23.676;2023-02-17T06:53:39;92845.94;;;3.93;69.60
10958;BME280;5531;42.570;23.676;2023-02-17T06:56:08;92844.44;;;4.00;69.62
10958;BME280;5531;42.570;23.676;2023-02-17T06:58:37;92851.53;;;3.98;69.21
10958;BME280;5531;42.570;23.676;2023-02-17T07:01:13;92856.03;;;4.06;68.74
10958;BME280;5531;42.570;23.676;2023-02-17T07:03:46;92853.03;;;4.11;68.79
10958;BME280;5531;42.570;23.676;2023-02-17T07:06:15;92851.25;;;4.21;69.02
10958;BME280;5531;42.570;23.676;2023-02-17T07:08:44;92855.19;;;4.25;68.80
10958;BME280;5531;42.570;23.676;2023-02-17T07:11:14;92852.19;;;4.30;69.27
10958;BME280;5531;42.570;23.676;2023-02-17T07:13:43;92850.44;;;4.30;68.87
10958;BME280;5531;42.570;23.676;2023-02-17T07:16:13;92855.31;;;4.33;68.63
10958;BME280;5531;42.570;23.676;2023-02-17T07:18:45;92848.25;;;4.35;68.52
10958;BME280;5531;42.570;23.676;2023-02-17T07:21:14;92850.97;;;4.34;68.47
10958;BME280;5531;42.570;23.676;2023-02-17T07:23:43;92854.63;;;4.41;68.34
10958;BME280;5531;42.570;23.676;2023-02-17T07:26:13;92861.88;;;4.47;68.35
10958;BME280;5531;42.570;23.676;2023-02-17T07:28:42;92862.66;;;4.57;67.41
10958;BME280;5531;42.570;23.676;2023-02-17T07:31:13;92867.03;;;4.67;68.42
10958;BME280;5531;42.570;23.676;2023-02-17T07:33:46;92877.94;;;4.70;67.55
10958;BME280;5531;42.570;23.676;2023-02-17T07:36:16;92865.22;;;4.77;67.50
10958;BME280;5531;42.570;23.676;2023-02-17T07:38:45;92878.31;;;4.85;66.61
10958;BME280;5531;42.570;23.676;2023-02-17T07:41:17;92869.84;;;4.83;67.84
10958;BME280;5531;42.570;23.676;2023-02-17T07:43:47;92874.63;;;4.88;67.64
10958;BME280;5531;42.570;23.676;2023-02-17T07:46:16;92872.03;;;4.88;66.04
10958;BME280;5531;42.570;23.676;2023-02-17T07:48:48;92870.63;;;4.93;66.97
10958;BME280;5531;42.570;23.676;2023-02-17T07:51:19;92875.41;;;4.98;66.82
10958;BME280;5531;42.570;23.676;2023-02-17T07:53:49;92871.59;;;5.02;66.98
10958;BME280;5531;42.570;23.676;2023-02-17T07:56:20;92875.63;;;5.14;66.50
10958;BME280;5531;42.570;23.676;2023-02-17T07:58:50;92882.03;;;5.20;65.81
10958;BME280;5531;42.570;23.676;2023-02-17T08:01:21;92873.69;;;5.26;66.17
10958;BME280;5531;42.570;23.676;2023-02-17T08:03:55;92872.66;;;5.37;66.57
10958;BME280;5531;42.570;23.676;2023-02-17T08:06:24;92875.22;;;5.47;64.79
10958;BME280;5531;42.570;23.676;2023-02-17T08:08:54;92873.25;;;5.59;65.24
10958;BME280;5531;42.570;23.676;2023-02-17T08:11:35;92874.25;;;5.76;63.72
10958;BME280;5531;42.570;23.676;2023-02-17T08:14:18;92878.81;;;5.92;63.11
10958;BME280;5531;42.570;23.676;2023-02-17T08:16:48;92877.50;;;6.05;62.65
10958;BME280;5531;42.570;23.676;2023-02-17T08:19:20;92882.19;;;6.20;61.76
10958;BME280;5531;42.570;23.676;2023-02-17T08:21:51;92886.59;;;6.37;61.22
10958;BME280;5531;42.570;23.676;2023-02-17T08:24:20;92881.44;;;6.46;59.94
10958;BME280;5531;42.570;23.676;2023-02-17T08:26:49;92886.66;;;6.46;59.39
10958;BME280;5531;42.570;23.676;2023-02-17T08:29:18;92885.66;;;6.47;59.47
10958;BME280;5531;42.570;23.676;2023-02-17T08:31:51;92895.13;;;6.48;59.66
10958;BME280;5531;42.570;23.676;2023-02-17T08:34:23;92898.25;;;6.51;58.92
10958;BME280;5531;42.570;23.676;2023-02-17T08:36:52;92888.03;;;6.58;60.18
10958;BME280;5531;42.570;23.676;2023-02-17T08:39:21;92886.19;;;6.68;59.56
10958;BME280;5531;42.570;23.676;2023-02-17T08:41:52;92895.75;;;6.68;58.89
10958;BME280;5531;42.570;23.676;2023-02-17T08:44:22;92890.00;;;6.82;60.83
10958;BME280;5531;42.570;23.676;2023-02-17T08:46:51;92890.94;;;6.99;58.94
10958;BME280;5531;42.570;23.676;2023-02-17T08:49:24;92888.06;;;7.10;59.29
10958;BME280;5531;42.570;23.676;2023-02-17T08:51:57;92893.03;;;7.22;57.27
10958;BME280;5531;42.570;23.676;2023-02-17T08:54:26;92890.09;;;7.25;56.95
10958;BME280;5531;42.570;23.676;2023-02-17T08:56:55;92878.13;;;7.32;56.32
10958;BME280;5531;42.570;23.676;2023-02-17T08:59:25;92878.31;;;7.39;56.66
10958;BME280;5531;42.570;23.676;2023-02-17T09:01:54;92879.81;;;7.49;57.04
10958;BME280;5531;42.570;23.676;2023-02-17T09:04:26;92885.03;;;7.58;55.96
10958;BME280;5531;42.570;23.676;2023-02-17T09:06:55;92888.50;;;7.58;55.05
10958;BME280;5531;42.570;23.676;2023-02-17T09:09:25;92884.09;;;7.59;56.08
10958;BME280;5531;42.570;23.676;2023-02-17T09:11:56;92892.25;;;7.64;55.39
10958;BME280;5531;42.570;23.676;2023-02-17T09:14:26;92887.91;;;7.73;56.08
10958;BME280;5531;42.570;23.676;2023-02-17T09:16:56;92893.16;;;7.81;53.68
10958;BME280;5531;42.570;23.676;2023-02-17T09:19:28;92882.56;;;7.82;54.81
10958;BME280;5531;42.570;23.676;2023-02-17T09:21:57;92886.34;;;7.96;53.79
10958;BME280;5531;42.570;23.676;2023-02-17T09:24:27;92874.13;;;8.05;53.71
10958;BME280;5531;42.570;23.676;2023-02-17T09:26:57;92883.94;;;8.19;54.08
10958;BME280;5531;42.570;23.676;2023-02-17T09:29:26;92885.41;;;8.22;53.41
10958;BME280;5531;42.570;23.676;2023-02-17T09:31:55;92878.72;;;8.27;53.45
10958;BME280;5531;42.570;23.676;2023-02-17T09:34:27;92877.13;;;8.35;53.55
10958;BME280;5531;42.570;23.676;2023-02-17T09:36:56;92876.00;;;8.46;53.62
10958;BME280;5531;42.570;23.676;2023-02-17T09:39:25;92871.78;;;8.53;53.34
10958;BME280;5531;42.570;23.676;2023-02-17T09:41:54;92885.81;;;8.60;53.06
10958;BME280;5531;42.570;23.676;2023-02-17T09:44:25;92883.50;;;8.65;52.81
10958;BME280;5531;42.570;23.676;2023-02-17T09:47:00;92872.41;;;8.63;53.75
10958;BME280;5531;42.570;23.676;2023-02-17T09:49:37;92875.19;;;8.53;52.21
10958;BME280;5531;42.570;23.676;2023-02-17T09:52:11;92872.09;;;8.66;53.86
10958;BME280;5531;42.570;23.676;2023-02-17T09:54:45;92877.47;;;8.81;53.22
10958;BME280;5531;42.570;23.676;2023-02-17T09:57:20;92871.75;;;8.86;53.50
10958;BME280;5531;42.570;23.676;2023-02-17T09:59:53;92867.00;;;8.89;52.44
10958;BME280;5531;42.570;23.676;2023-02-17T10:02:26;92871.75;;;8.86;51.19
10958;BME280;5531;42.570;23.676;2023-02-17T10:05:06;92864.06;;;8.92;50.96
10958;BME280;5531;42.570;23.676;2023-02-17T10:07:40;92863.41;;;8.98;51.56
10958;BME280;5531;42.570;23.676;2023-02-17T10:10:13;92855.72;;;9.05;51.78
10958;BME280;5531;42.570;23.676;2023-02-17T10:12:45;92853.28;;;9.04;50.72
10958;BME280;5531;42.570;23.676;2023-02-17T10:15:19;92850.00;;;9.10;51.84
10958;BME280;5531;42.570;23.676;2023-02-17T10:17:54;92850.97;;;9.17;51.26
10958;BME280;5531;42.570;23.676;2023-02-17T10:20:30;92849.66;;;9.21;53.12
10958;BME280;5531;42.570;23.676;2023-02-17T10:23:04;92844.72;;;9.34;51.75
10958;BME280;5531;42.570;23.676;2023-02-17T10:25:47;92851.59;;;9.35;50.33
10958;BME280;5531;42.570;23.676;2023-02-17T10:28:23;92846.69;;;9.32;50.96
10958;BME280;5531;42.570;23.676;2023-02-17T10:31:01;92842.91;;;9.35;50.93
10958;BME280;5531;42.570;23.676;2023-02-17T10:33:35;92848.41;;;9.48;52.75
10958;BME280;5531;42.570;23.676;2023-02-17T10:36:22;92844.75;;;9.66;51.38
10958;BME280;5531;42.570;23.676;2023-02-17T10:38:54;92843.91;;;9.73;50.15
10958;BME280;5531;42.570;23.676;2023-02-17T10:41:32;92840.63;;;9.80;50.16
10958;BME280;5531;42.570;23.676;2023-02-17T10:44:05;92835.69;;;9.85;50.38
10958;BME280;5531;42.570;23.676;2023-02-17T10:46:39;92835.63;;;9.93;52.07
10958;BME280;5531;42.570;23.676;2023-02-17T10:49:17;92827.78;;;9.93;49.99
10958;BME280;5531;42.570;23.676;2023-02-17T10:51:52;92834.28;;;9.97;47.72
10958;BME280;5531;42.570;23.676;2023-02-17T10:54:28;92833.31;;;9.98;47.93
10958;BME280;5531;42.570;23.676;2023-02-17T10:57:03;92822.72;;;10.15;49.07
10958;BME280;5531;42.570;23.676;2023-02-17T10:59:36;92826.66;;;10.19;48.63
10958;BME280;5531;42.570;23.676;2023-02-17T11:02:16;92820.41;;;10.20;47.78
10958;BME280;5531;42.570;23.676;2023-02-17T11:04:47;92824.28;;;10.32;48.42
10958;BME280;5531;42.570;23.676;2023-02-17T11:07:25;92827.94;;;10.46;46.98
10958;BME280;5531;42.570;23.676;2023-02-17T11:10:00;92819.28;;;10.45;46.58
10958;BME280;5531;42.570;23.676;2023-02-17T11:12:37;92815.59;;;10.55;46.13
10958;BME280;5531;42.570;23.676;2023-02-17T11:15:15;92810.22;;;10.71;46.35
10958;BME280;5531;42.570;23.676;2023-02-17T11:17:46;92809.63;;;10.84;48.28
10958;BME280;5531;42.570;23.676;2023-02-17T11:20:31;92804.94;;;10.94;47.40
10958;BME280;5531;42.570;23.676;2023-02-17T11:23:07;92800.78;;;11.00;44.85
10958;BME280;5531;42.570;23.676;2023-02-17T11:26:00;92797.06;;;11.09;43.10
10958;BME280;5531;42.570;23.676;2023-02-17T11:28:30;92800.31;;;11.11;42.35
10958;BME280;5531;42.570;23.676;2023-02-17T11:30:59;92787.59;;;11.08;42.63
10958;BME280;5531;42.570;23.676;2023-02-17T11:33:34;92795.28;;;11.10;44.24
10958;BME280;5531;42.570;23.676;2023-02-17T11:36:04;92799.78;;;11.16;42.22
10958;BME280;5531;42.570;23.676;2023-02-17T11:38:44;92785.97;;;11.22;43.49
10958;BME280;5531;42.570;23.676;2023-02-17T11:41:13;92805.78;;;11.25;42.38
10958;BME280;5531;42.570;23.676;2023-02-17T11:43:51;92792.00;;;11.23;42.58
10958;BME280;5531;42.570;23.676;2023-02-17T11:46:24;92803.16;;;11.25;40.57
10958;BME280;5531;42.570;23.676;2023-02-17T11:51:54;92791.00;;;11.38;41.25
10958;BME280;5531;42.570;23.676;2023-02-17T11:54:34;92793.81;;;11.37;38.06
10958;BME280;5531;42.570;23.676;2023-02-17T11:57:27;92787.41;;;11.40;37.81
10958;BME280;5531;42.570;23.676;2023-02-17T12:00:13;92779.44;;;11.48;39.14
10958;BME280;5531;42.570;23.676;2023-02-17T12:03:13;92774.16;;;11.63;38.61
10958;BME280;5531;42.570;23.676;2023-02-17T12:06:00;92770.25;;;11.73;40.09
10958;BME280;5531;42.570;23.676;2023-02-17T12:08:42;92766.69;;;11.81;40.70
10958;BME280;5531;42.570;23.676;2023-02-17T12:11:27;92765.69;;;11.82;40.13
10958;BME280;5531;42.570;23.676;2023-02-17T12:14:12;92765.63;;;11.76;37.96
10958;BME280;5531;42.570;23.676;2023-02-17T12:16:48;92760.00;;;11.79;38.68
10958;BME280;5531;42.570;23.676;2023-02-17T12:19:38;92762.72;;;11.85;40.36
10958;BME280;5531;42.570;23.676;2023-02-17T12:22:18;92768.13;;;11.84;37.53
10958;BME280;5531;42.570;23.676;2023-02-17T12:25:02;92757.19;;;11.95;39.96
10958;BME280;5531;42.570;23.676;2023-02-17T12:27:46;92763.75;;;12.06;38.77
10958;BME280;5531;42.570;23.676;2023-02-17T12:30:26;92758.41;;;11.99;36.71
10958;BME280;5531;42.570;23.676;2023-02-17T12:33:13;92752.81;;;12.02;36.65
10958;BME280;5531;42.570;23.676;2023-02-17T12:35:48;92749.31;;;11.95;36.58
10958;BME280;5531;42.570;23.676;2023-02-17T12:38:24;92745.56;;;11.89;37.86
10958;BME280;5531;42.570;23.676;2023-02-17T12:40:59;92744.75;;;12.04;41.01
10958;BME280;5531;42.570;23.676;2023-02-17T12:43:39;92744.50;;;11.99;37.86
10958;BME280;5531;42.570;23.676;2023-02-17T12:46:14;92744.56;;;12.05;38.08
10958;BME280;5531;42.570;23.676;2023-02-17T12:48:46;92742.94;;;12.04;39.48
10958;BME280;5531;42.570;23.676;2023-02-17T12:51:20;92743.00;;;12.11;37.99
10958;BME280;5531;42.570;23.676;2023-02-17T12:53:54;92745.03;;;12.16;38.57
10958;BME280;5531;42.570;23.676;2023-02-17T12:56:42;92730.50;;;12.13;39.49
10958;BME280;5531;42.570;23.676;2023-02-17T12:59:21;92726.09;;;12.20;38.97
10958;BME280;5531;42.570;23.676;2023-02-17T13:01:58;92726.75;;;12.22;38.61
10958;BME280;5531;42.570;23.676;2023-02-17T13:04:29;92731.91;;;12.37;38.97
10958;BME280;5531;42.570;23.676;2023-02-17T13:07:07;92718.59;;;12.39;40.32
10958;BME280;5531;42.570;23.676;2023-02-17T13:09:40;92717.44;;;12.48;38.24
10958;BME280;5531;42.570;23.676;2023-02-17T13:12:27;92718.59;;;12.39;38.97
10958;BME280;5531;42.570;23.676;2023-02-17T13:15:01;92720.38;;;12.38;38.58
10958;BME280;5531;42.570;23.676;2023-02-17T13:17:33;92719.22;;;12.41;38.11
10958;BME280;5531;42.570;23.676;2023-02-17T13:20:27;92715.25;;;12.52;38.62
10958;BME280;5531;42.570;23.676;2023-02-17T13:23:11;92724.41;;;12.34;38.14
10958;BME280;5531;42.570;23.676;2023-02-17T13:25:41;92726.72;;;12.44;39.12
10958;BME280;5531;42.570;23.676;2023-02-17T13:28:32;92719.53;;;12.59;38.70
10958;BME280;5531;42.570;23.676;2023-02-17T13:31:14;92721.97;;;12.61;37.86
10958;BME280;5531;42.570;23.676;2023-02-17T13:33:49;92723.91;;;12.74;38.57
10958;BME280;5531;42.570;23.676;2023-02-17T13:36:35;92712.81;;;12.78;37.36
10958;BME280;5531;42.570;23.676;2023-02-17T13:39:27;92710.31;;;12.70;37.40
10958;BME280;5531;42.570;23.676;2023-02-17T13:41:56;92709.91;;;12.67;37.08
10958;BME280;5531;42.570;23.676;2023-02-17T13:44:27;92711.63;;;12.81;36.07
10958;BME280;5531;42.570;23.676;2023-02-17T13:47:02;92712.41;;;12.81;37.35
10958;BME280;5531;42.570;23.676;2023-02-17T13:49:33;92709.06;;;12.94;36.69